createdAt,value
2018-01-16T00:01:00.271Z,984.97
2018-01-16T00:02:00.857Z,984.95
2018-01-16T00:03:01.447Z,984.99
2018-01-16T00:04:02.104Z,984.96
2018-01-16T00:05:02.676Z,985.05
2018-01-16T00:06:03.276Z,985.08
2018-01-16T00:07:03.884Z,985.10
2018-01-16T00:08:04.481Z,985.02
2018-01-16T00:09:05.077Z,984.97
2018-01-16T00:10:05.673Z,985.01
2018-01-16T00:11:06.270Z,984.99
2018-01-16T00:12:06.870Z,984.94
2018-01-16T00:13:07.457Z,984.99
2018-01-16T00:14:08.051Z,984.98
2018-01-16T00:15:08.656Z,985.05
2018-01-16T00:16:09.252Z,985.07
2018-01-16T00:17:09.850Z,984.98
2018-01-16T00:18:10.455Z,984.95
2018-01-16T00:19:11.051Z,985.01
2018-01-16T00:20:11.646Z,984.99
2018-01-16T00:21:12.246Z,984.88
2018-01-16T00:22:12.835Z,984.98
2018-01-16T00:23:13.429Z,985.12
2018-01-16T00:24:14.021Z,985.15
2018-01-16T00:25:14.619Z,985.28
2018-01-16T00:26:15.231Z,985.24
2018-01-16T00:27:15.871Z,985.30
2018-01-16T00:28:16.465Z,985.23
2018-01-16T00:29:17.073Z,985.27
2018-01-16T00:30:17.670Z,985.26
2018-01-16T00:31:18.259Z,985.26
2018-01-16T00:32:18.859Z,985.24
2018-01-16T00:33:19.458Z,985.26
2018-01-16T00:34:20.053Z,985.28
2018-01-16T00:35:20.646Z,985.26
2018-01-16T00:36:21.241Z,985.12
2018-01-16T00:37:21.838Z,985.24
2018-01-16T00:38:22.447Z,985.19
2018-01-16T00:39:23.041Z,985.19
2018-01-16T00:40:23.638Z,985.23
2018-01-16T00:41:24.223Z,985.15
2018-01-16T00:42:24.825Z,985.09
2018-01-16T00:43:25.428Z,985.09
2018-01-16T00:44:26.031Z,985.11
2018-01-16T00:45:26.632Z,984.88
2018-01-16T00:46:27.241Z,984.93
2018-01-16T00:47:27.842Z,984.97
2018-01-16T00:48:28.515Z,984.98
2018-01-16T00:49:29.083Z,984.96
2018-01-16T00:50:29.677Z,984.95
2018-01-16T00:51:30.268Z,984.88
2018-01-16T00:52:30.862Z,984.99
2018-01-16T00:53:31.470Z,985.07
2018-01-16T00:54:32.074Z,985.05
2018-01-16T00:55:32.668Z,985.07
2018-01-16T00:56:33.261Z,985.08
2018-01-16T00:57:33.851Z,984.97
2018-01-16T00:58:34.446Z,985.07
2018-01-16T00:59:35.040Z,984.97
2018-01-16T01:01:19.849Z,985.10
2018-01-16T01:02:20.472Z,985.01
2018-01-16T01:03:21.076Z,985.05
2018-01-16T01:04:21.687Z,985.12
2018-01-16T01:05:22.276Z,985.05
2018-01-16T01:06:22.872Z,985.03
2018-01-16T01:07:23.465Z,985.08
2018-01-16T01:08:24.066Z,985.08
2018-01-16T01:09:24.693Z,985.10
2018-01-16T01:10:25.255Z,985.12
2018-01-16T01:11:25.873Z,985.07
2018-01-16T01:12:26.493Z,984.90
2018-01-16T01:13:27.079Z,984.83
2018-01-16T01:14:27.679Z,984.81
2018-01-16T01:15:28.279Z,984.82
2018-01-16T01:16:28.872Z,984.60
2018-01-16T01:17:29.539Z,984.74
2018-01-16T01:18:30.115Z,984.73
2018-01-16T01:19:30.700Z,984.77
2018-01-16T01:20:31.335Z,984.73
2018-01-16T01:21:31.899Z,984.83
2018-01-16T01:22:32.509Z,984.76
2018-01-16T01:23:33.112Z,984.86
2018-01-16T01:24:33.703Z,984.78
2018-01-16T01:25:34.308Z,984.84
2018-01-16T01:26:34.905Z,984.85
2018-01-16T01:27:35.504Z,984.84
2018-01-16T01:28:36.107Z,984.91
2018-01-16T01:29:36.704Z,984.88
2018-01-16T01:30:37.296Z,984.89
2018-01-16T01:31:37.888Z,984.79
2018-01-16T01:32:38.488Z,984.87
2018-01-16T01:33:39.084Z,984.84
2018-01-16T01:34:39.688Z,984.86
2018-01-16T01:35:40.296Z,984.83
2018-01-16T01:36:40.892Z,984.81
2018-01-16T01:37:41.495Z,984.77
2018-01-16T01:38:42.100Z,984.77
2018-01-16T01:39:42.699Z,984.77
2018-01-16T01:40:43.300Z,984.69
2018-01-16T01:41:43.904Z,984.65
2018-01-16T01:42:44.496Z,984.55
2018-01-16T01:43:45.095Z,984.53
2018-01-16T01:44:45.697Z,984.47
2018-01-16T01:45:46.296Z,984.47
2018-01-16T01:46:46.891Z,984.44
2018-01-16T01:47:47.483Z,984.38
2018-01-16T01:48:48.084Z,984.42
2018-01-16T01:49:48.692Z,984.49
2018-01-16T01:50:49.288Z,984.43
2018-01-16T01:51:49.888Z,984.47
2018-01-16T01:52:50.485Z,984.39
2018-01-16T01:53:51.077Z,984.33
2018-01-16T01:54:51.666Z,984.29
2018-01-16T01:55:52.254Z,984.33
2018-01-16T01:56:52.845Z,984.35
2018-01-16T01:57:53.435Z,984.42
2018-01-16T01:58:54.038Z,984.29
2018-01-16T01:59:54.646Z,984.27
2018-01-16T02:00:55.234Z,984.29
2018-01-16T02:01:55.828Z,984.30
2018-01-16T02:02:56.421Z,984.23
2018-01-16T02:03:57.018Z,984.23
2018-01-16T02:04:57.620Z,984.29
2018-01-16T02:05:58.212Z,984.19
2018-01-16T02:06:58.811Z,984.16
2018-01-16T02:07:59.400Z,984.23
2018-01-16T02:08:59.987Z,984.21
2018-01-16T02:10:00.582Z,984.22
2018-01-16T02:11:01.178Z,984.20
2018-01-16T02:12:01.774Z,984.18
2018-01-16T02:13:02.385Z,984.15
2018-01-16T02:14:02.993Z,984.17
2018-01-16T02:15:03.598Z,984.20
2018-01-16T02:16:04.200Z,984.11
2018-01-16T02:17:04.792Z,984.15
2018-01-16T02:18:05.391Z,984.17
2018-01-16T02:19:05.979Z,984.19
2018-01-16T02:20:06.580Z,984.18
2018-01-16T02:21:07.177Z,984.16
2018-01-16T02:22:07.777Z,984.20
2018-01-16T02:23:08.374Z,984.20
2018-01-16T02:24:08.976Z,984.24
2018-01-16T02:25:09.577Z,984.23
2018-01-16T02:26:10.166Z,984.20
2018-01-16T02:27:10.750Z,984.14
2018-01-16T02:28:11.346Z,984.19
2018-01-16T02:29:11.942Z,984.08
2018-01-16T02:30:12.534Z,984.03
2018-01-16T02:31:13.128Z,984.13
2018-01-16T02:32:13.730Z,984.05
2018-01-16T02:33:14.335Z,984.03
2018-01-16T02:34:14.935Z,984.03
2018-01-16T02:35:15.537Z,983.85
2018-01-16T02:36:16.127Z,983.85
2018-01-16T02:37:16.725Z,983.86
2018-01-16T02:38:17.317Z,983.81
2018-01-16T02:39:17.911Z,983.86
2018-01-16T02:40:18.509Z,983.86
2018-01-16T02:41:19.104Z,983.90
2018-01-16T02:42:19.693Z,983.86
2018-01-16T02:43:20.286Z,983.77
2018-01-16T02:44:20.877Z,983.78
2018-01-16T02:45:21.462Z,983.72
2018-01-16T02:46:22.064Z,983.79
2018-01-16T02:47:22.665Z,983.75
2018-01-16T02:48:23.268Z,983.73
2018-01-16T02:49:23.868Z,983.68
2018-01-16T02:50:24.470Z,983.63
2018-01-16T02:51:25.079Z,983.61
2018-01-16T02:52:25.689Z,983.65
2018-01-16T02:53:26.292Z,983.60
2018-01-16T02:54:26.885Z,983.63
2018-01-16T02:55:27.473Z,983.66
2018-01-16T02:56:28.067Z,983.63
2018-01-16T02:57:28.672Z,983.56
2018-01-16T02:58:29.269Z,983.62
2018-01-16T02:59:29.865Z,983.58
2018-01-16T03:00:30.457Z,983.54
2018-01-16T03:01:31.061Z,983.54
2018-01-16T03:02:31.662Z,983.47
2018-01-16T03:03:32.255Z,983.49
2018-01-16T03:04:32.850Z,983.50
2018-01-16T03:05:33.443Z,983.50
2018-01-16T03:06:34.035Z,983.47
2018-01-16T03:07:34.628Z,983.51
2018-01-16T03:08:35.213Z,983.50
2018-01-16T03:09:35.802Z,983.52
2018-01-16T03:10:36.391Z,983.54
2018-01-16T03:11:36.983Z,983.48
2018-01-16T03:12:37.576Z,983.49
2018-01-16T03:13:38.174Z,983.51
2018-01-16T03:14:38.772Z,983.48
2018-01-16T03:15:39.385Z,983.46
2018-01-16T03:16:39.991Z,983.44
2018-01-16T03:17:40.593Z,983.38
2018-01-16T03:18:41.177Z,983.41
2018-01-16T03:19:41.773Z,983.35
2018-01-16T03:20:42.359Z,983.38
2018-01-16T03:21:42.952Z,983.32
2018-01-16T03:22:43.545Z,983.35
2018-01-16T03:23:44.147Z,983.38
2018-01-16T03:24:44.735Z,983.35
2018-01-16T03:25:45.322Z,983.40
2018-01-16T03:26:45.915Z,983.31
2018-01-16T03:27:46.501Z,983.29
2018-01-16T03:28:47.094Z,983.30
2018-01-16T03:29:47.686Z,983.30
2018-01-16T03:30:48.295Z,983.25
2018-01-16T03:31:48.893Z,983.23
2018-01-16T03:32:49.486Z,983.22
2018-01-16T03:33:50.079Z,983.19
2018-01-16T03:34:50.676Z,983.21
2018-01-16T03:35:51.266Z,983.21
2018-01-16T03:36:51.857Z,983.16
2018-01-16T03:37:52.453Z,983.24
2018-01-16T03:38:53.054Z,983.22
2018-01-16T03:39:53.652Z,983.21
2018-01-16T03:40:54.241Z,983.16
2018-01-16T03:41:54.843Z,983.29
2018-01-16T03:42:55.440Z,983.24
2018-01-16T03:43:56.045Z,983.31
2018-01-16T03:44:56.645Z,983.33
2018-01-16T03:45:57.236Z,983.32
2018-01-16T03:46:57.839Z,983.21
2018-01-16T03:47:58.451Z,983.32
2018-01-16T03:48:59.048Z,983.32
2018-01-16T03:49:59.641Z,983.29
2018-01-16T03:51:00.235Z,983.18
2018-01-16T03:52:00.823Z,983.22
2018-01-16T03:53:01.424Z,983.40
2018-01-16T03:54:02.030Z,983.16
2018-01-16T03:55:02.637Z,983.25
2018-01-16T03:56:03.231Z,983.31
2018-01-16T03:57:03.823Z,983.32
2018-01-16T03:58:04.419Z,983.24
2018-01-16T03:59:05.031Z,983.23
2018-01-16T04:00:05.633Z,983.14
2018-01-16T04:01:06.241Z,983.24
2018-01-16T04:02:06.824Z,983.11
2018-01-16T04:03:07.420Z,983.15
2018-01-16T04:04:08.007Z,983.09
2018-01-16T04:05:08.641Z,983.00
2018-01-16T04:06:09.195Z,983.02
2018-01-16T04:07:09.784Z,983.05
2018-01-16T04:08:10.381Z,983.05
2018-01-16T04:09:10.983Z,983.08
2018-01-16T04:10:11.583Z,983.06
2018-01-16T04:11:12.177Z,983.04
2018-01-16T04:12:12.771Z,982.98
2018-01-16T04:13:13.367Z,983.05
2018-01-16T04:14:13.973Z,982.96
2018-01-16T04:15:14.560Z,982.94
2018-01-16T04:16:15.154Z,982.97
2018-01-16T04:17:15.753Z,982.91
2018-01-16T04:18:16.355Z,982.92
2018-01-16T04:19:16.945Z,982.93
2018-01-16T04:20:17.540Z,982.88
2018-01-16T04:21:18.166Z,983.04
2018-01-16T04:22:18.738Z,982.99
2018-01-16T04:23:19.322Z,982.95
2018-01-16T04:24:19.921Z,982.97
2018-01-16T04:25:20.519Z,982.89
2018-01-16T04:26:21.122Z,982.76
2018-01-16T04:27:21.716Z,982.95
2018-01-16T04:28:22.317Z,982.89
2018-01-16T04:29:22.911Z,982.89
2018-01-16T04:30:23.515Z,982.87
2018-01-16T04:31:24.116Z,982.87
2018-01-16T04:32:24.709Z,982.81
2018-01-16T04:33:25.306Z,982.83
2018-01-16T04:34:25.906Z,982.80
2018-01-16T04:35:26.503Z,982.85
2018-01-16T04:36:27.099Z,982.86
2018-01-16T04:37:27.687Z,982.77
2018-01-16T04:38:28.271Z,982.77
2018-01-16T04:39:28.871Z,982.71
2018-01-16T04:40:29.476Z,982.67
2018-01-16T04:41:30.077Z,982.74
2018-01-16T04:42:30.674Z,982.70
2018-01-16T04:43:31.270Z,982.65
2018-01-16T04:44:31.875Z,982.64
2018-01-16T04:45:32.480Z,982.57
2018-01-16T04:46:33.080Z,982.55
2018-01-16T04:47:33.680Z,982.50
2018-01-16T04:48:34.283Z,982.47
2018-01-16T04:49:34.868Z,982.50
2018-01-16T04:50:35.470Z,982.57
2018-01-16T04:51:36.057Z,982.50
2018-01-16T04:52:36.643Z,982.46
2018-01-16T04:53:37.244Z,982.42
2018-01-16T04:54:37.832Z,982.54
2018-01-16T04:55:38.426Z,982.52
2018-01-16T04:56:39.025Z,982.54
2018-01-16T04:57:39.616Z,982.50
2018-01-16T04:58:40.215Z,982.50
2018-01-16T04:59:40.813Z,982.46
2018-01-16T05:00:41.413Z,982.45
2018-01-16T05:01:42.014Z,982.47
2018-01-16T05:02:42.608Z,982.51
2018-01-16T05:03:43.205Z,982.50
2018-01-16T05:04:43.794Z,982.40
2018-01-16T05:05:44.387Z,982.55
2018-01-16T05:06:44.980Z,982.47
2018-01-16T05:07:45.578Z,982.52
2018-01-16T05:08:46.184Z,982.52
2018-01-16T05:09:46.781Z,982.45
2018-01-16T05:10:47.383Z,982.52
2018-01-16T05:11:47.981Z,982.55
2018-01-16T05:12:48.590Z,982.49
2018-01-16T05:13:49.184Z,982.38
2018-01-16T05:14:49.776Z,982.36
2018-01-16T05:15:50.416Z,982.42
2018-01-16T05:16:50.965Z,982.40
2018-01-16T05:17:51.550Z,982.43
2018-01-16T05:18:52.149Z,982.36
2018-01-16T05:19:52.765Z,982.48
2018-01-16T05:20:53.356Z,982.32
2018-01-16T05:21:53.994Z,982.43
2018-01-16T05:22:54.546Z,982.37
2018-01-16T05:23:55.154Z,982.48
2018-01-16T05:24:55.753Z,982.43
2018-01-16T05:25:56.371Z,982.41
2018-01-16T05:26:56.958Z,982.46
2018-01-16T05:27:57.561Z,982.30
2018-01-16T05:28:58.156Z,982.43
2018-01-16T05:29:58.747Z,982.45
2018-01-16T05:30:59.346Z,982.38
2018-01-16T05:31:59.941Z,982.35
2018-01-16T05:33:00.543Z,982.36
2018-01-16T05:34:01.145Z,982.35
2018-01-16T05:35:01.741Z,982.43
2018-01-16T05:36:02.344Z,982.18
2018-01-16T05:37:02.951Z,982.27
2018-01-16T05:38:03.565Z,982.20
2018-01-16T05:39:04.162Z,982.16
2018-01-16T05:40:04.764Z,982.21
2018-01-16T05:41:05.356Z,982.29
2018-01-16T05:42:05.944Z,982.33
2018-01-16T05:43:06.534Z,982.31
2018-01-16T05:44:07.135Z,982.39
2018-01-16T05:45:07.740Z,982.24
2018-01-16T05:46:08.326Z,982.24
2018-01-16T05:47:08.920Z,982.32
2018-01-16T05:48:09.511Z,982.35
2018-01-16T05:49:10.105Z,982.28
2018-01-16T05:50:10.705Z,982.40
2018-01-16T05:51:11.302Z,982.37
2018-01-16T05:52:11.883Z,982.38
2018-01-16T05:53:12.473Z,982.39
2018-01-16T05:54:13.067Z,982.31
2018-01-16T05:55:13.669Z,982.46
2018-01-16T05:56:14.267Z,982.52
2018-01-16T05:57:14.853Z,982.35
2018-01-16T05:58:15.444Z,982.39
2018-01-16T05:59:16.043Z,982.40
2018-01-16T06:00:16.637Z,982.43
2018-01-16T06:01:17.229Z,982.39
2018-01-16T06:02:17.823Z,982.38
2018-01-16T06:03:18.416Z,982.42
2018-01-16T06:04:19.012Z,982.40
2018-01-16T06:05:19.613Z,982.45
2018-01-16T06:06:20.225Z,982.43
2018-01-16T06:07:20.816Z,982.41
2018-01-16T06:08:21.407Z,982.46
2018-01-16T06:09:22.016Z,982.53
2018-01-16T06:10:22.604Z,982.51
2018-01-16T06:11:23.197Z,982.49
2018-01-16T06:12:23.790Z,982.53
2018-01-16T06:13:24.392Z,982.55
2018-01-16T06:14:24.991Z,982.58
2018-01-16T06:15:25.584Z,982.56
2018-01-16T06:16:26.179Z,982.52
2018-01-16T06:17:26.774Z,982.45
2018-01-16T06:18:27.378Z,982.53
2018-01-16T06:19:27.977Z,982.55
2018-01-16T06:20:28.575Z,982.51
2018-01-16T06:21:29.183Z,982.52
2018-01-16T06:22:29.780Z,982.51
2018-01-16T06:23:30.382Z,982.43
2018-01-16T06:24:30.969Z,982.44
2018-01-16T06:25:31.565Z,982.44
2018-01-16T06:26:32.165Z,982.43
2018-01-16T06:27:32.771Z,982.41
2018-01-16T06:28:33.367Z,982.40
2018-01-16T06:29:33.963Z,982.46
2018-01-16T06:30:34.560Z,982.46
2018-01-16T06:31:35.178Z,982.45
2018-01-16T06:32:35.767Z,982.35
2018-01-16T06:33:36.358Z,982.41
2018-01-16T06:34:36.961Z,982.44
2018-01-16T06:35:37.567Z,982.27
2018-01-16T06:36:38.172Z,982.44
2018-01-16T06:37:38.779Z,982.40
2018-01-16T06:38:39.380Z,982.40
2018-01-16T06:39:39.988Z,982.39
2018-01-16T06:40:40.587Z,982.37
2018-01-16T06:41:41.172Z,982.33
2018-01-16T06:42:41.774Z,982.41
2018-01-16T06:43:42.382Z,982.32
2018-01-16T06:44:42.982Z,982.39
2018-01-16T06:45:43.599Z,982.36
2018-01-16T06:46:44.174Z,982.24
2018-01-16T06:47:44.765Z,982.27
2018-01-16T06:48:45.360Z,982.24
2018-01-16T06:49:45.961Z,982.33
2018-01-16T06:50:46.567Z,982.23
2018-01-16T06:51:47.170Z,982.16
2018-01-16T06:52:47.768Z,982.13
2018-01-16T06:53:48.357Z,982.23
2018-01-16T06:54:48.943Z,982.11
2018-01-16T06:55:49.535Z,982.19
2018-01-16T06:56:50.124Z,982.15
2018-01-16T06:57:50.729Z,982.18
2018-01-16T06:58:51.325Z,982.15
2018-01-16T06:59:51.920Z,982.19
2018-01-16T07:00:52.520Z,982.23
2018-01-16T07:01:53.124Z,982.20
2018-01-16T07:02:53.720Z,982.25
2018-01-16T07:03:54.317Z,982.30
2018-01-16T07:04:54.913Z,982.24
2018-01-16T07:05:55.517Z,982.28
2018-01-16T07:06:56.128Z,982.25
2018-01-16T07:07:56.737Z,982.25
2018-01-16T07:08:57.328Z,982.14
2018-01-16T07:09:57.926Z,982.17
2018-01-16T07:10:58.527Z,982.10
2018-01-16T07:11:59.138Z,982.04
2018-01-16T07:12:59.740Z,982.20
2018-01-16T07:14:00.349Z,982.27
2018-01-16T07:15:00.962Z,982.39
2018-01-16T07:16:01.573Z,982.39
2018-01-16T07:17:02.177Z,982.40
2018-01-16T07:18:02.780Z,982.38
2018-01-16T07:19:03.367Z,982.36
2018-01-16T07:20:03.953Z,982.35
2018-01-16T07:21:04.556Z,982.39
2018-01-16T07:22:05.164Z,982.39
2018-01-16T07:23:05.754Z,982.37
2018-01-16T07:24:06.359Z,982.46
2018-01-16T07:25:06.960Z,982.52
2018-01-16T07:26:07.548Z,982.52
2018-01-16T07:27:08.149Z,982.60
2018-01-16T07:28:08.746Z,982.50
2018-01-16T07:29:09.341Z,982.45
2018-01-16T07:30:09.945Z,982.54
2018-01-16T07:31:10.539Z,982.54
2018-01-16T07:32:11.146Z,982.53
2018-01-16T07:33:11.746Z,982.53
2018-01-16T07:34:12.340Z,982.52
2018-01-16T07:35:12.937Z,982.53
2018-01-16T07:36:13.534Z,982.56
2018-01-16T07:37:14.135Z,982.58
2018-01-16T07:38:14.750Z,982.65
2018-01-16T07:39:15.359Z,982.56
2018-01-16T07:40:15.962Z,982.53
2018-01-16T07:41:16.556Z,982.50
2018-01-16T07:42:17.166Z,982.61
2018-01-16T07:43:17.779Z,982.58
2018-01-16T07:44:18.392Z,982.55
2018-01-16T07:45:18.997Z,982.56
2018-01-16T07:46:19.595Z,982.59
2018-01-16T07:47:20.195Z,982.67
2018-01-16T07:48:20.789Z,982.47
2018-01-16T07:49:21.390Z,982.47
2018-01-16T07:50:21.992Z,982.57
2018-01-16T07:51:22.595Z,982.63
2018-01-16T07:52:23.205Z,982.57
2018-01-16T07:53:23.799Z,982.43
2018-01-16T07:54:24.396Z,982.57
2018-01-16T07:55:24.990Z,982.48
2018-01-16T07:56:25.591Z,982.57
2018-01-16T07:57:26.211Z,982.50
2018-01-16T07:58:26.824Z,982.55
2018-01-16T07:59:27.430Z,982.51
2018-01-16T08:00:28.028Z,982.53
2018-01-16T08:01:28.621Z,982.59
2018-01-16T08:02:29.225Z,982.67
2018-01-16T08:03:29.831Z,982.56
2018-01-16T08:04:30.441Z,982.53
2018-01-16T08:05:31.043Z,982.62
2018-01-16T08:06:31.645Z,982.65
2018-01-16T08:07:32.244Z,982.67
2018-01-16T08:08:32.855Z,982.57
2018-01-16T08:09:33.470Z,982.51
2018-01-16T08:10:34.071Z,982.58
2018-01-16T08:11:34.674Z,982.43
2018-01-16T08:12:35.270Z,982.63
2018-01-16T08:13:35.883Z,982.64
2018-01-16T08:14:36.499Z,982.65
2018-01-16T08:15:37.100Z,982.59
2018-01-16T08:16:37.694Z,982.67
2018-01-16T08:17:38.287Z,982.48
2018-01-16T08:18:38.885Z,982.65
2018-01-16T08:19:39.511Z,982.65
2018-01-16T08:20:40.103Z,982.66
2018-01-16T08:22:56.220Z,982.71
2018-01-16T08:23:56.918Z,982.71
2018-01-16T08:24:57.478Z,982.75
2018-01-16T08:25:58.090Z,982.64
2018-01-16T08:26:58.699Z,982.67
2018-01-16T08:27:59.303Z,982.62
2018-01-16T08:28:59.900Z,982.61
2018-01-16T08:30:01.493Z,982.71
2018-01-16T08:31:02.105Z,982.52
2018-01-16T08:32:02.701Z,982.60
2018-01-16T08:33:03.320Z,982.64
2018-01-16T08:34:03.911Z,982.56
2018-01-16T08:35:04.514Z,982.45
2018-01-16T08:36:05.108Z,982.48
2018-01-16T08:37:05.713Z,982.47
2018-01-16T08:38:06.315Z,982.57
2018-01-16T08:39:06.912Z,982.56
2018-01-16T08:40:07.513Z,982.51
2018-01-16T08:41:08.106Z,982.50
2018-01-16T08:42:08.705Z,982.55
2018-01-16T08:43:09.317Z,982.51
2018-01-16T08:44:09.922Z,982.55
2018-01-16T08:45:10.530Z,982.61
2018-01-16T08:46:11.132Z,982.58
2018-01-16T08:47:11.742Z,982.61
2018-01-16T08:48:12.354Z,982.57
2018-01-16T08:49:12.963Z,982.56
2018-01-16T08:50:13.583Z,982.61
2018-01-16T08:51:14.192Z,982.61
2018-01-16T08:52:14.799Z,982.61
2018-01-16T08:53:15.398Z,982.64
2018-01-16T08:54:16.008Z,982.63
2018-01-16T08:55:16.613Z,982.60
2018-01-16T08:56:17.208Z,982.60
2018-01-16T08:57:17.808Z,982.71
2018-01-16T08:58:18.404Z,982.73
2018-01-16T08:59:19.020Z,982.73
2018-01-16T09:00:19.612Z,982.80
2018-01-16T09:01:20.217Z,982.81
2018-01-16T09:02:20.826Z,982.83
2018-01-16T09:03:21.429Z,982.78
2018-01-16T09:04:22.040Z,982.72
2018-01-16T09:05:22.639Z,982.80
2018-01-16T09:06:23.334Z,982.41
2018-01-16T09:07:23.949Z,982.79
2018-01-16T09:08:24.557Z,982.87
2018-01-16T09:09:25.160Z,982.73
2018-01-16T09:10:25.769Z,982.87
2018-01-16T09:11:26.361Z,982.88
2018-01-16T09:12:26.966Z,982.84
2018-01-16T09:13:27.591Z,982.90
2018-01-16T09:14:28.187Z,982.79
2018-01-16T09:15:28.789Z,982.98
2018-01-16T09:16:29.397Z,982.94
2018-01-16T09:17:30.015Z,982.88
2018-01-16T09:18:30.631Z,982.88
2018-01-16T09:19:31.236Z,982.75
2018-01-16T09:20:31.837Z,982.93
2018-01-16T09:21:32.438Z,982.91
2018-01-16T09:22:33.053Z,982.94
2018-01-16T09:23:33.651Z,982.90
2018-01-16T09:24:34.258Z,982.87
2018-01-16T09:25:34.858Z,982.84
2018-01-16T09:26:35.488Z,982.95
2018-01-16T09:27:36.088Z,982.91
2018-01-16T09:28:36.721Z,982.85
2018-01-16T09:29:37.313Z,982.92
2018-01-16T09:30:37.917Z,982.86
2018-01-16T09:31:38.525Z,983.02
2018-01-16T09:32:39.129Z,982.94
2018-01-16T09:33:39.744Z,982.86
2018-01-16T09:34:40.371Z,982.90
2018-01-16T09:35:40.963Z,982.87
2018-01-16T09:36:41.577Z,982.92
2018-01-16T09:37:42.207Z,982.81
2018-01-16T09:38:42.826Z,982.89
2018-01-16T09:39:43.435Z,982.92
2018-01-16T09:40:44.047Z,982.96
2018-01-16T09:41:44.706Z,982.89
2018-01-16T09:42:45.279Z,982.92
2018-01-16T09:43:45.898Z,982.99
2018-01-16T09:44:46.502Z,983.02
2018-01-16T09:45:47.109Z,982.80
2018-01-16T09:46:47.704Z,982.94
2018-01-16T09:47:48.305Z,982.90
2018-01-16T09:48:48.908Z,982.91
2018-01-16T09:49:49.509Z,982.89
2018-01-16T09:50:50.135Z,982.94
2018-01-16T09:51:50.746Z,983.04
2018-01-16T09:52:51.337Z,983.05
2018-01-16T09:53:51.990Z,982.99
2018-01-16T09:54:52.537Z,983.06
2018-01-16T09:55:53.140Z,983.19
2018-01-16T09:56:53.759Z,982.79
2018-01-16T09:57:54.382Z,982.98
2018-01-16T09:58:54.981Z,983.36
2018-01-16T09:59:55.802Z,983.17
2018-01-16T10:00:56.426Z,983.23
2018-01-16T10:01:57.114Z,983.26
2018-01-16T10:02:57.698Z,983.21
2018-01-16T10:03:58.292Z,983.34
2018-01-16T10:04:58.895Z,983.25
2018-01-16T10:05:59.491Z,983.47
2018-01-16T10:07:00.092Z,983.21
2018-01-16T10:08:00.687Z,983.44
2018-01-16T10:09:01.295Z,983.43
2018-01-16T10:10:01.915Z,983.49
2018-01-16T10:11:02.543Z,983.38
2018-01-16T10:12:03.161Z,983.49
2018-01-16T10:13:03.772Z,983.43
2018-01-16T10:14:04.608Z,983.40
2018-01-16T10:15:05.220Z,983.20
2018-01-16T10:16:05.820Z,983.38
2018-01-16T10:17:06.421Z,983.44
2018-01-16T10:18:07.029Z,983.41
2018-01-16T10:19:07.628Z,983.50
2018-01-16T10:20:08.227Z,983.50
2018-01-16T10:21:08.827Z,983.52
2018-01-16T10:22:09.427Z,983.52
2018-01-16T10:23:10.038Z,983.48
2018-01-16T10:24:10.652Z,983.63
2018-01-16T10:25:11.268Z,983.68
2018-01-16T10:26:11.865Z,983.79
2018-01-16T10:27:12.467Z,983.71
2018-01-16T10:28:13.093Z,983.63
2018-01-16T10:29:13.704Z,983.69
2018-01-16T10:30:14.310Z,983.71
2018-01-16T10:31:14.920Z,983.67
2018-01-16T10:32:15.518Z,983.56
2018-01-16T10:33:16.139Z,983.67
2018-01-16T10:34:16.740Z,983.61
2018-01-16T10:35:17.357Z,983.78
2018-01-16T10:36:17.959Z,983.75
2018-01-16T10:37:18.580Z,983.86
2018-01-16T10:38:19.198Z,983.83
2018-01-16T10:39:19.794Z,983.86
2018-01-16T10:40:20.409Z,983.81
2018-01-16T10:41:21.025Z,983.92
2018-01-16T10:42:21.629Z,983.94
2018-01-16T10:43:22.236Z,984.02
2018-01-16T10:44:22.854Z,984.08
2018-01-16T10:45:23.451Z,984.10
2018-01-16T10:46:24.059Z,984.09
2018-01-16T10:47:24.667Z,984.03
2018-01-16T10:48:25.277Z,984.06
2018-01-16T10:49:25.901Z,984.11
2018-01-16T10:50:26.529Z,984.13
2018-01-16T10:51:27.135Z,984.26
2018-01-16T10:52:27.739Z,984.20
2018-01-16T10:53:28.358Z,984.03
2018-01-16T10:54:28.972Z,984.07
2018-01-16T10:55:29.593Z,984.12
2018-01-16T10:56:30.223Z,984.15
2018-01-16T10:57:30.820Z,984.14
2018-01-16T10:58:31.443Z,984.24
2018-01-16T10:59:32.075Z,984.12
2018-01-16T11:00:32.710Z,984.25
2018-01-16T11:01:33.346Z,984.13
2018-01-16T11:02:33.953Z,984.22
2018-01-16T11:03:34.568Z,984.12
2018-01-16T11:04:35.176Z,984.06
2018-01-16T11:05:35.785Z,984.15
2018-01-16T11:06:36.401Z,984.21
2018-01-16T11:07:37.017Z,984.15
2018-01-16T11:08:37.626Z,983.96
2018-01-16T11:09:38.251Z,984.10
2018-01-16T11:10:38.877Z,984.18
2018-01-16T11:11:39.502Z,984.16
2018-01-16T11:12:40.128Z,984.25
2018-01-16T11:13:40.755Z,984.03
2018-01-16T11:14:41.375Z,984.06
2018-01-16T11:15:41.984Z,984.16
2018-01-16T11:16:42.597Z,984.19
2018-01-16T11:17:43.223Z,984.09
2018-01-16T11:18:43.840Z,984.18
2018-01-16T11:19:44.467Z,984.19
2018-01-16T11:20:45.111Z,984.06
2018-01-16T11:21:45.712Z,984.19
2018-01-16T11:22:46.339Z,984.07
2018-01-16T11:23:47.188Z,984.13
2018-01-16T11:24:48.017Z,984.14
2018-01-16T11:25:48.646Z,984.11
2018-01-16T11:26:49.276Z,984.01
2018-01-16T11:27:49.902Z,984.24
2018-01-16T11:28:50.532Z,983.90
2018-01-16T11:29:51.146Z,984.18
2018-01-16T11:30:51.785Z,984.16
2018-01-16T11:31:52.419Z,984.28
2018-01-16T11:32:53.047Z,984.21
2018-01-16T11:33:53.674Z,984.36
2018-01-16T11:34:54.295Z,984.23
2018-01-16T11:35:54.922Z,984.35
2018-01-16T11:36:55.542Z,984.30
2018-01-16T11:37:56.174Z,984.33
2018-01-16T11:38:56.806Z,984.33
2018-01-16T11:39:57.445Z,984.44
2018-01-16T11:40:58.085Z,984.47
2018-01-16T11:41:58.694Z,984.36
2018-01-16T11:42:59.328Z,984.49
2018-01-16T11:44:00.168Z,984.55
2018-01-16T11:45:01.298Z,984.50
2018-01-16T11:46:01.936Z,984.35
2018-01-16T11:47:02.756Z,984.48
2018-01-16T11:48:03.385Z,984.53
2018-01-16T11:49:04.221Z,984.49
2018-01-16T11:50:04.850Z,984.35
2018-01-16T11:51:05.466Z,984.39
2018-01-16T11:52:06.068Z,984.40
2018-01-16T11:53:06.675Z,984.43
2018-01-16T11:54:07.306Z,984.52
2018-01-16T11:55:08.124Z,984.65
2018-01-16T11:56:08.755Z,984.53
2018-01-16T11:57:09.397Z,984.66
2018-01-16T11:58:10.233Z,984.63
2018-01-16T11:59:10.864Z,984.64
2018-01-16T12:00:11.938Z,984.74
2018-01-16T12:01:12.794Z,984.68
2018-01-16T12:02:13.432Z,984.66
2018-01-16T12:03:14.295Z,984.72
2018-01-16T12:04:14.911Z,984.67
2018-01-16T12:05:15.541Z,984.67
2018-01-16T12:06:16.177Z,984.69
2018-01-16T12:07:16.817Z,984.68
2018-01-16T12:08:17.469Z,984.86
2018-01-16T12:09:18.111Z,984.72
2018-01-16T12:10:18.880Z,984.81
2018-01-16T12:11:19.509Z,984.81
2018-01-16T12:12:20.145Z,984.90
2018-01-16T12:13:20.773Z,984.81
2018-01-16T12:14:21.428Z,984.86
2018-01-16T12:15:22.013Z,984.99
2018-01-16T12:16:22.640Z,984.91
2018-01-16T12:17:23.262Z,984.91
2018-01-16T12:18:23.889Z,984.87
2018-01-16T12:19:24.642Z,984.73
2018-01-16T12:20:25.261Z,984.75
2018-01-16T12:21:26.104Z,984.71
2018-01-16T12:22:26.721Z,984.66
2018-01-16T12:23:27.346Z,984.79
2018-01-16T12:24:27.965Z,984.73
2018-01-16T12:25:28.581Z,984.69
2018-01-16T12:26:29.401Z,984.59
2018-01-16T12:27:30.048Z,984.64
2018-01-16T12:28:30.662Z,984.72
2018-01-16T12:29:31.279Z,984.75
2018-01-16T12:30:31.901Z,984.72
2018-01-16T12:31:32.528Z,984.78
2018-01-16T12:32:33.131Z,984.83
2018-01-16T12:33:33.761Z,984.83
2018-01-16T12:34:34.384Z,984.70
2018-01-16T12:35:35.238Z,984.69
2018-01-16T12:36:36.064Z,984.77
2018-01-16T12:37:36.742Z,984.74
2018-01-16T12:38:37.359Z,984.71